Time;durP1;ratioP1;P1;durP2;ratioP2;P2;SDS_P1;SDS_P2;PMS_P1;PMS_P2;Temp;Humidity;BMP_temperature;BMP_pressure;BME280_temperature;BME280_humidity;BME280_pressure;Samples;Min_cycle;Max_cycle;Signal;HPM_P1;HPM_P2
2022/12/03 00:01:56;;;;;;;15.15;6.43;;;3.20;99.90;;;;;;6124499;19;19955;-64
2022/12/03 00:04:00;;;;;;;14.32;6.97;;;3.70;99.90;;;;;;6131834;19;20086;-63
2022/12/03 00:06:04;;;;;;;15.70;7.05;;;3.60;99.90;;;;;;6131732;19;19925;-63
2022/12/03 00:08:11;;;;;;;12.77;6.63;;;3.60;99.90;;;;;;6130444;19;19939;-63
2022/12/03 00:10:15;;;;;;;16.08;7.28;;;3.40;99.90;;;;;;6128555;19;19918;-63
2022/12/03 00:12:18;;;;;;;13.35;6.00;;;3.70;99.90;;;;;;6129459;19;19914;-64
2022/12/03 00:14:22;;;;;;;13.50;6.82;;;3.70;99.90;;;;;;6129641;19;19954;-63
2022/12/03 00:16:26;;;;;;;14.70;7.00;;;3.70;99.90;;;;;;6128777;19;19943;-64
2022/12/03 00:18:30;;;;;;;14.68;7.00;;;3.50;99.90;;;;;;6129913;19;19911;-63
2022/12/03 00:20:34;;;;;;;15.90;7.13;;;3.90;99.90;;;;;;6129693;19;19919;-64
2022/12/03 00:22:38;;;;;;;17.80;6.97;;;3.50;99.90;;;;;;6130285;19;19930;-63
2022/12/03 00:24:45;;;;;;;16.80;6.72;;;3.60;99.90;;;;;;6131615;19;19915;-64
2022/12/03 00:26:49;;;;;;;13.80;6.18;;;3.70;99.90;;;;;;6130795;19;19923;-63
2022/12/03 00:28:53;;;;;;;13.77;6.43;;;;;;;;;;6130325;19;19955;-63
2022/12/03 00:30:57;;;;;;;15.23;6.95;;;;;;;;;;6130334;19;20342;-64
2022/12/03 00:33:01;;;;;;;15.73;7.25;;;3.30;99.90;;;;;;6131299;19;19919;-64
2022/12/03 00:35:05;;;;;;;15.85;6.97;;;4.00;99.90;;;;;;6128388;19;19960;-63
2022/12/03 00:37:10;;;;;;;16.38;7.35;;;;;;;;;;6130800;19;20368;-64
2022/12/03 00:39:13;;;;;;;15.65;7.45;;;3.30;99.90;;;;;;6127497;19;19919;-64
2022/12/03 00:41:20;;;;;;;15.32;6.65;;;3.20;99.90;;;;;;6130087;19;19925;-64
2022/12/03 00:43:24;;;;;;;15.43;7.00;;;3.60;99.90;;;;;;6129271;19;19943;-64
2022/12/03 00:45:27;;;;;;;14.68;6.78;;;3.30;99.90;;;;;;6129305;19;19914;-63
2022/12/03 00:47:31;;;;;;;13.95;6.25;;;3.90;99.90;;;;;;6129565;19;19921;-63
2022/12/03 00:49:35;;;;;;;16.77;7.03;;;4.00;99.90;;;;;;6132405;19;19919;-64
2022/12/03 00:51:39;;;;;;;15.98;7.10;;;3.90;99.90;;;;;;6129006;19;20381;-63
2022/12/03 00:53:43;;;;;;;15.93;7.35;;;3.60;99.90;;;;;;6128820;19;20291;-63
2022/12/03 00:55:49;;;;;;;22.88;9.73;;;;;;;;;;6128436;19;19922;-63
2022/12/03 00:57:55;;;;;;;17.20;7.70;;;3.70;99.90;;;;;;6129088;19;19937;-64
2022/12/03 00:59:59;;;;;;;17.13;7.72;;;3.50;99.90;;;;;;6130540;19;19947;-63
2022/12/03 01:02:03;;;;;;;16.23;7.75;;;;;;;;;;6125983;19;19918;-63
2022/12/03 01:04:10;;;;;;;15.93;7.28;;;3.40;99.90;;;;;;6132612;19;19943;-64
2022/12/03 01:06:14;;;;;;;14.90;7.15;;;3.50;99.90;;;;;;6128855;19;19918;-64
2022/12/03 01:08:17;;;;;;;16.33;7.57;;;4.00;99.90;;;;;;6128592;19;19940;-64
2022/12/03 01:10:21;;;;;;;15.75;6.50;;;3.60;99.90;;;;;;6128382;19;20374;-64
2022/12/03 01:12:25;;;;;;;14.93;6.72;;;;;;;;;;6129698;19;19919;-64
2022/12/03 01:14:32;;;;;;;15.93;7.10;;;3.70;99.90;;;;;;6125872;19;19921;-64
2022/12/03 01:16:36;;;;;;;15.00;7.00;;;3.70;99.90;;;;;;6126517;19;19919;-64
2022/12/03 01:18:40;;;;;;;14.38;6.85;;;3.70;99.90;;;;;;6130553;19;20697;-64
2022/12/03 01:20:44;;;;;;;15.50;6.95;;;;;;;;;;6126648;19;19966;-64
2022/12/03 01:22:48;;;;;;;15.50;6.80;;;3.10;99.90;;;;;;6129275;19;19922;-64
2022/12/03 01:24:53;;;;;;;15.32;6.60;;;;;;;;;;6129550;19;19919;-64
2022/12/03 01:26:57;;;;;;;17.00;7.75;;;3.30;99.90;;;;;;6126930;19;19918;-64
2022/12/03 01:29:01;;;;;;;15.00;7.00;;;;;;;;;;6128325;19;19926;-64
2022/12/03 01:33:24;;;;;;;19.25;7.80;;;;;;;;;;6129637;19;19923;-64
2022/12/03 01:35:28;;;;;;;14.60;7.13;;;;;;;;;;6126268;19;20345;-64
2022/12/03 01:37:33;;;;;;;18.48;7.05;;;3.20;99.90;;;;;;6130873;19;19923;-63
2022/12/03 01:39:36;;;;;;;17.60;7.85;;;3.80;99.90;;;;;;6129499;19;19918;-64
2022/12/03 01:41:41;;;;;;;17.50;7.50;;;3.70;99.90;;;;;;6127593;19;20408;-63
2022/12/03 01:43:45;;;;;;;18.02;8.00;;;3.50;99.90;;;;;;6128128;19;20298;-64
2022/12/03 01:45:49;;;;;;;17.80;7.25;;;3.70;99.90;;;;;;6128346;19;19947;-66
2022/12/03 01:47:56;;;;;;;15.57;7.63;;;2.80;99.90;;;;;;6127734;19;19926;-63
2022/12/03 01:50:04;;;;;;;15.65;7.40;;;3.50;99.90;;;;;;6127062;19;20289;-64
2022/12/03 01:52:10;;;;;;;13.82;7.30;;;3.20;99.90;;;;;;6127302;19;19919;-64
2022/12/03 01:54:19;;;;;;;16.95;7.57;;;3.10;99.90;;;;;;6127190;19;20036;-64
2022/12/03 01:56:24;;;;;;;17.80;6.97;;;3.80;99.90;;;;;;6126281;19;20295;-64
2022/12/03 01:58:30;;;;;;;14.07;6.70;;;3.70;99.90;;;;;;6127765;19;19922;-64
2022/12/03 02:00:34;;;;;;;16.27;7.30;;;3.20;99.90;;;;;;6129024;19;20281;-64
2022/12/03 02:02:38;;;;;;;14.55;7.53;;;;;;;;;;6117018;19;20018;-64
2022/12/03 02:04:44;;;;;;;16.80;8.13;;;3.30;99.90;;;;;;6128124;19;20597;-64
2022/12/03 02:06:48;;;;;;;16.10;7.82;;;;;;;;;;6127122;19;19959;-64
2022/12/03 02:08:58;;;;;;;17.85;8.20;;;;;;;;;;6125108;19;19922;-64
2022/12/03 02:11:04;;;;;;;15.95;6.75;;;3.20;99.90;;;;;;6126446;19;19973;-64
2022/12/03 02:13:10;;;;;;;14.57;6.63;;;3.20;99.90;;;;;;6127232;19;20342;-65
2022/12/03 02:15:14;;;;;;;15.55;7.00;;;3.20;99.90;;;;;;6129459;19;19934;-65
2022/12/03 02:17:19;;;;;;;14.98;7.28;;;3.40;99.90;;;;;;6127164;19;20029;-64
2022/12/03 02:19:28;;;;;;;12.85;6.20;;;3.80;99.90;;;;;;6127988;19;20560;-64
2022/12/03 02:21:43;;;;;;;15.88;7.55;;;3.40;99.90;;;;;;6127908;19;19910;-64
2022/12/03 02:23:59;;;;;;;15.25;7.65;;;3.40;99.90;;;;;;6122678;19;19918;-64
2022/12/03 02:26:07;;;;;;;16.60;7.65;;;3.70;99.90;;;;;;6127761;19;19955;-63
2022/12/03 02:28:11;;;;;;;16.58;8.18;;;3.50;99.90;;;;;;6128207;19;19922;-63
2022/12/03 02:30:18;;;;;;;17.10;7.90;;;3.50;99.90;;;;;;6126859;19;19926;-63
2022/12/03 02:32:22;;;;;;;16.58;7.03;;;3.20;99.90;;;;;;6126151;19;19922;-64
2022/12/03 02:34:38;;;;;;;18.10;8.10;;;3.60;99.90;;;;;;6126724;19;19911;-66
2022/12/03 02:36:42;;;;;;;15.60;7.97;;;3.20;99.90;;;;;;6127649;19;19922;-63
2022/12/03 02:38:48;;;;;;;16.25;7.32;;;3.10;99.90;;;;;;6126621;19;20276;-63
2022/12/03 02:40:55;;;;;;;17.80;8.38;;;3.60;99.90;;;;;;6120615;19;20382;-63
2022/12/03 02:43:01;;;;;;;18.38;7.82;;;3.50;99.90;;;;;;6127727;19;19951;-63
2022/12/03 02:45:09;;;;;;;16.85;7.28;;;3.20;99.90;;;;;;6124544;19;19926;-64
2022/12/03 02:47:13;;;;;;;15.55;7.80;;;;;;;;;;6126239;19;19915;-63
2022/12/03 02:49:17;;;;;;;15.63;7.00;;;3.50;99.90;;;;;;6126184;19;20263;-64
2022/12/03 02:51:21;;;;;;;18.13;7.53;;;3.50;99.90;;;;;;6126487;19;20252;-64
2022/12/03 02:53:29;;;;;;;17.00;8.23;;;3.40;99.90;;;;;;6127151;19;19956;-65
2022/12/03 02:55:35;;;;;;;13.25;6.53;;;3.50;99.90;;;;;;6125859;19;19914;-65
2022/12/03 02:57:41;;;;;;;15.60;7.22;;;3.30;99.90;;;;;;6125678;19;19918;-64
2022/12/03 02:59:47;;;;;;;14.80;7.00;;;3.50;99.90;;;;;;6125413;19;20269;-64
2022/12/03 03:01:52;;;;;;;14.15;6.85;;;;;;;;;;6128430;19;19956;-64
2022/12/03 03:03:56;;;;;;;13.63;6.90;;;3.50;99.90;;;;;;6125925;19;19922;-64
2022/12/03 03:06:01;;;;;;;13.40;7.15;;;3.40;99.90;;;;;;6126443;19;19964;-64
2022/12/03 03:08:06;;;;;;;16.83;7.35;;;3.50;99.90;;;;;;6126135;19;19922;-64
2022/12/03 03:10:14;;;;;;;14.82;7.13;;;3.40;99.90;;;;;;6126732;19;20830;-64
2022/12/03 03:12:18;;;;;;;17.80;7.88;;;3.30;99.90;;;;;;6124934;19;20717;-64
2022/12/03 03:14:21;;;;;;;14.05;7.10;;;3.40;99.90;;;;;;6129510;19;19978;-64
2022/12/03 03:16:29;;;;;;;13.93;6.90;;;3.40;99.90;;;;;;6126326;19;19930;-65
2022/12/03 03:18:33;;;;;;;13.23;6.70;;;3.10;99.90;;;;;;6123719;19;20452;-64
2022/12/03 03:20:37;;;;;;;16.55;7.43;;;3.30;99.90;;;;;;6125577;19;19918;-64
2022/12/03 03:22:43;;;;;;;16.95;7.72;;;3.30;99.90;;;;;;6125506;19;19931;-64
2022/12/03 03:24:48;;;;;;;18.05;8.35;;;;;;;;;;6125565;19;19927;-63
2022/12/03 03:26:52;;;;;;;15.60;7.65;;;3.20;99.90;;;;;;6125968;19;19939;-64
2022/12/03 03:28:58;;;;;;;13.30;6.63;;;;;;;;;;6125307;19;19923;-64
2022/12/03 03:31:04;;;;;;;16.48;7.70;;;3.40;99.90;;;;;;6126641;19;20679;-65
2022/12/03 03:33:11;;;;;;;16.08;7.88;;;3.60;99.90;;;;;;6125481;19;19918;-64
2022/12/03 03:35:16;;;;;;;13.85;6.63;;;3.10;99.90;;;;;;6125220;19;19921;-64
2022/12/03 03:37:20;;;;;;;15.32;7.30;;;3.30;99.90;;;;;;6120991;19;19961;-64
2022/12/03 03:39:25;;;;;;;18.52;8.07;;;3.40;99.90;;;;;;6125021;19;19918;-64
2022/12/03 03:41:30;;;;;;;18.52;8.25;;;3.50;99.90;;;;;;6125534;19;19929;-63
2022/12/03 03:43:36;;;;;;;15.75;6.80;;;3.50;99.90;;;;;;6124922;19;20262;-64
2022/12/03 03:45:40;;;;;;;16.08;7.70;;;3.30;99.90;;;;;;6127640;19;19923;-65
2022/12/03 03:47:44;;;;;;;16.65;7.80;;;3.20;99.90;;;;;;6125010;19;19915;-63
2022/12/03 03:49:51;;;;;;;15.48;7.28;;;3.30;99.90;;;;;;6124840;19;20274;-63
2022/12/03 03:51:55;;;;;;;17.10;7.40;;;3.60;99.90;;;;;;6123663;19;19918;-63
2022/12/03 03:53:59;;;;;;;17.45;8.07;;;3.30;99.90;;;;;;6124949;19;20636;-63
2022/12/03 03:56:03;;;;;;;16.48;8.40;;;3.10;99.90;;;;;;6123680;19;19922;-64
2022/12/03 03:58:07;;;;;;;15.65;7.80;;;3.60;99.90;;;;;;6124626;19;19923;-63
2022/12/03 04:00:13;;;;;;;15.25;7.43;;;3.40;99.90;;;;;;6124564;19;19935;-63
2022/12/03 04:02:21;;;;;;;16.42;7.65;;;3.30;99.90;;;;;;6126640;19;19974;-63
2022/12/03 04:04:26;;;;;;;17.52;7.93;;;3.40;99.90;;;;;;6124549;19;19918;-63
2022/12/03 04:06:33;;;;;;;15.65;7.53;;;3.30;99.90;;;;;;6121831;19;19947;-64
2022/12/03 04:08:37;;;;;;;17.90;8.43;;;3.60;99.90;;;;;;6124110;19;19919;-63
2022/12/03 04:12:57;;;;;;;13.45;7.13;;;3.60;99.90;;;;;;6124584;19;19932;-63
2022/12/03 04:15:01;;;;;;;18.33;8.20;;;3.30;99.90;;;;;;6124673;19;20549;-63
2022/12/03 04:17:05;;;;;;;17.63;8.00;;;3.60;99.90;;;;;;6122897;19;20323;-63
2022/12/03 04:19:09;;;;;;;17.15;7.82;;;;;;;;;;6127126;19;19919;-63
2022/12/03 04:23:32;;;;;;;18.50;7.45;;;3.60;99.90;;;;;;6121973;19;20014;-64
2022/12/03 04:30:11;;;;;;;18.10;8.38;;;3.00;99.90;;;;;;6124434;19;20272;-63
2022/12/03 04:36:47;;;;;;;20.45;7.97;;;2.80;99.90;;;;;;6124872;19;19931;-63
2022/12/03 04:38:54;;;;;;;18.45;8.55;;;3.70;99.90;;;;;;6123582;19;19914;-63
2022/12/03 04:41:03;;;;;;;18.40;7.78;;;3.50;99.90;;;;;;6123254;19;20341;-63
2022/12/03 04:43:07;;;;;;;17.85;7.57;;;;;;;;;;6125189;19;20288;-63
2022/12/03 04:45:12;;;;;;;15.63;7.28;;;3.40;99.90;;;;;;6123591;19;20017;-64
2022/12/03 04:47:18;;;;;;;18.63;7.93;;;3.20;99.90;;;;;;6123321;19;19914;-63
2022/12/03 04:49:21;;;;;;;17.70;7.20;;;3.30;99.90;;;;;;6128769;19;19922;-64
2022/12/03 04:51:25;;;;;;;17.60;7.97;;;3.30;99.90;;;;;;6130520;19;19927;-63
2022/12/03 04:53:29;;;;;;;16.15;6.75;;;3.30;99.90;;;;;;6132084;19;20416;-63
2022/12/03 04:55:36;;;;;;;15.25;6.70;;;3.40;99.90;;;;;;6128962;19;19910;-63
2022/12/03 04:57:40;;;;;;;14.93;6.95;;;;;;;;;;6126645;19;19958;-64
2022/12/03 04:59:44;;;;;;;16.77;7.03;;;3.20;99.90;;;;;;6130140;19;20370;-63
2022/12/03 05:01:48;;;;;;;15.95;7.50;;;3.40;99.90;;;;;;6128619;19;19922;-64
2022/12/03 05:03:52;;;;;;;17.30;8.07;;;3.10;99.90;;;;;;6127932;19;20287;-64
2022/12/03 05:05:56;;;;;;;14.70;6.90;;;3.10;99.90;;;;;;6128336;19;20290;-63
2022/12/03 05:07:59;;;;;;;17.38;8.43;;;3.60;99.90;;;;;;6129717;19;19926;-64
2022/12/03 05:10:03;;;;;;;20.02;8.23;;;2.90;99.90;;;;;;6124686;19;19926;-63
2022/12/03 05:12:10;;;;;;;16.95;7.88;;;3.30;99.90;;;;;;6128960;19;19919;-65
2022/12/03 05:14:14;;;;;;;18.88;8.25;;;2.80;99.90;;;;;;6125434;19;20269;-64
2022/12/03 05:16:18;;;;;;;18.60;8.10;;;3.20;99.90;;;;;;6127316;19;19955;-65
2022/12/03 05:18:22;;;;;;;16.27;7.50;;;3.00;99.90;;;;;;6130114;19;19923;-65
2022/12/03 05:22:44;;;;;;;15.63;7.32;;;2.50;99.90;;;;;;6124902;19;19926;-70
2022/12/03 05:24:48;;;;;;;17.77;7.68;;;2.70;99.90;;;;;;6132215;19;19919;-69
2022/12/03 05:26:52;;;;;;;17.85;7.65;;;3.20;99.90;;;;;;6130625;19;19939;-68
2022/12/03 05:28:59;;;;;;;15.32;6.93;;;2.70;99.90;;;;;;6130165;19;20249;-71
2022/12/03 05:31:03;;;;;;;15.27;7.43;;;3.50;99.90;;;;;;6131157;19;19919;-69
2022/12/03 05:33:07;;;;;;;15.73;7.63;;;2.90;99.90;;;;;;6130040;19;19926;-68
2022/12/03 05:35:11;;;;;;;17.10;7.95;;;3.20;99.90;;;;;;6128104;19;19922;-68
2022/12/03 05:37:15;;;;;;;18.35;8.20;;;3.20;99.90;;;;;;6126819;19;19915;-67
2022/12/03 05:39:19;;;;;;;17.23;7.30;;;2.80;99.90;;;;;;6130422;19;19919;-67
2022/12/03 05:43:40;;;;;;;19.45;8.00;;;;;;;;;;6129438;19;19921;-68
2022/12/03 05:45:46;;;;;;;15.80;7.25;;;2.80;99.90;;;;;;6127435;19;20341;-68
2022/12/03 05:47:50;;;;;;;16.65;6.72;;;2.80;99.90;;;;;;6124094;19;19956;-65
2022/12/03 05:49:54;;;;;;;13.32;6.65;;;2.80;99.90;;;;;;6123066;19;20018;-65
2022/12/03 05:51:58;;;;;;;18.58;8.05;;;2.70;99.90;;;;;;6127178;19;19918;-64
2022/12/03 05:54:02;;;;;;;19.42;8.02;;;2.70;99.90;;;;;;6127303;19;20347;-65
2022/12/03 05:56:06;;;;;;;16.67;8.25;;;3.00;99.90;;;;;;6127756;19;19926;-64
2022/12/03 05:58:10;;;;;;;17.17;7.35;;;2.60;99.90;;;;;;6126509;19;19923;-64
2022/12/03 06:00:19;;;;;;;16.40;7.78;;;2.90;99.90;;;;;;6124359;19;19948;-64
2022/12/03 06:02:25;;;;;;;15.13;7.20;;;3.00;99.90;;;;;;6127114;19;19926;-65
2022/12/03 06:04:29;;;;;;;16.02;7.32;;;3.10;99.90;;;;;;6126656;19;19919;-64
2022/12/03 06:06:33;;;;;;;16.13;6.97;;;;;;;;;;6128657;19;19982;-65
2022/12/03 06:08:37;;;;;;;16.30;7.07;;;;;;;;;;6125369;19;19950;-66
2022/12/03 06:10:41;;;;;;;15.80;6.88;;;2.90;99.90;;;;;;6127185;19;19939;-65
2022/12/03 06:12:46;;;;;;;14.07;6.43;;;3.30;99.90;;;;;;6124174;19;20361;-65
2022/12/03 06:14:50;;;;;;;17.60;7.70;;;2.50;99.90;;;;;;6117293;19;20043;-64
2022/12/03 06:16:54;;;;;;;20.75;8.40;;;2.90;99.90;;;;;;6126637;19;19918;-64
2022/12/03 06:19:00;;;;;;;19.05;7.75;;;2.90;99.90;;;;;;6127887;19;19922;-65
2022/12/03 06:21:04;;;;;;;18.88;8.20;;;;;;;;;;6128212;19;19918;-65
2022/12/03 06:23:08;;;;;;;18.90;7.40;;;2.90;99.90;;;;;;6130268;19;19930;-65
2022/12/03 06:25:12;;;;;;;15.00;7.55;;;2.80;99.90;;;;;;6127873;19;19947;-66
2022/12/03 06:27:16;;;;;;;20.58;6.82;;;2.60;99.90;;;;;;6126453;19;19915;-66
2022/12/03 06:29:21;;;;;;;17.55;7.72;;;2.70;99.90;;;;;;6123776;19;19919;-66
2022/12/03 06:31:25;;;;;;;21.15;8.15;;;3.10;99.90;;;;;;6127934;19;19907;-65
2022/12/03 06:33:29;;;;;;;17.65;7.35;;;2.70;99.90;;;;;;6125199;19;19922;-64
2022/12/03 06:35:35;;;;;;;17.45;6.97;;;3.00;99.90;;;;;;6129853;19;20286;-65
2022/12/03 06:37:39;;;;;;;16.63;8.32;;;;;;;;;;6125616;19;19921;-66
2022/12/03 06:39:43;;;;;;;19.05;7.25;;;2.70;99.90;;;;;;6128578;19;19925;-65
2022/12/03 06:41:47;;;;;;;18.45;7.18;;;2.60;99.90;;;;;;6126439;19;19939;-65
2022/12/03 06:43:51;;;;;;;17.42;8.20;;;;;;;;;;6125723;19;19926;-64
2022/12/03 06:45:55;;;;;;;15.13;7.30;;;2.70;99.90;;;;;;6128882;19;19922;-65
2022/12/03 06:47:59;;;;;;;17.20;7.78;;;2.60;99.90;;;;;;6126669;19;19918;-65
2022/12/03 06:50:03;;;;;;;20.10;8.40;;;2.60;99.90;;;;;;6124627;19;19923;-64
2022/12/03 06:52:09;;;;;;;18.55;7.47;;;2.80;99.90;;;;;;6128693;19;20022;-65
2022/12/03 06:54:13;;;;;;;19.33;8.15;;;3.10;99.90;;;;;;6127735;19;20382;-65
2022/12/03 06:56:17;;;;;;;19.83;7.95;;;;;;;;;;6124066;19;19998;-66
2022/12/03 06:58:21;;;;;;;19.92;8.13;;;;;;;;;;6124805;19;19919;-65
2022/12/03 07:00:25;;;;;;;18.58;7.68;;;2.90;99.90;;;;;;6126468;19;19924;-64
2022/12/03 07:02:29;;;;;;;18.77;7.93;;;3.10;99.90;;;;;;6123746;19;19927;-64
2022/12/03 07:04:33;;;;;;;16.10;7.22;;;3.10;99.90;;;;;;6129700;19;19929;-64
2022/12/03 07:06:37;;;;;;;17.80;8.02;;;2.90;99.90;;;;;;6127037;19;19953;-64
2022/12/03 07:08:43;;;;;;;19.38;8.10;;;3.00;99.90;;;;;;6127360;19;19915;-64
2022/12/03 07:10:47;;;;;;;17.95;8.10;;;2.90;99.90;;;;;;6124341;19;19922;-64
2022/12/03 07:12:51;;;;;;;15.95;7.60;;;2.80;99.90;;;;;;6124695;19;19950;-64
2022/12/03 07:14:55;;;;;;;17.95;7.30;;;2.80;99.90;;;;;;6125625;19;19951;-65
2022/12/03 07:16:59;;;;;;;19.75;8.25;;;2.30;99.90;;;;;;6125609;19;19926;-64
2022/12/03 07:19:03;;;;;;;20.98;8.95;;;3.00;99.90;;;;;;6127906;19;20404;-64
2022/12/03 07:21:07;;;;;;;20.55;8.70;;;3.10;99.90;;;;;;6126027;19;20033;-64
2022/12/03 07:23:11;;;;;;;18.17;7.95;;;2.70;99.90;;;;;;6125374;19;19925;-64
2022/12/03 07:25:17;;;;;;;21.02;8.50;;;2.30;99.90;;;;;;6125628;19;20322;-64
2022/12/03 07:27:21;;;;;;;18.80;7.88;;;2.80;99.90;;;;;;6123399;19;19915;-64
2022/12/03 07:29:26;;;;;;;16.38;6.78;;;2.40;99.90;;;;;;6125129;19;19919;-64
2022/12/03 07:31:30;;;;;;;17.13;7.35;;;;;;;;;;6124007;19;19919;-64
2022/12/03 07:33:34;;;;;;;18.88;8.43;;;;;;;;;;6124999;19;19918;-66
2022/12/03 07:35:38;;;;;;;21.33;7.95;;;;;;;;;;6126241;19;19948;-67
2022/12/03 07:37:42;;;;;;;19.25;8.63;;;2.70;99.90;;;;;;6128642;19;20286;-67
2022/12/03 07:39:46;;;;;;;19.08;7.93;;;;;;;;;;6129301;19;19910;-66
2022/12/03 07:41:52;;;;;;;16.92;6.97;;;2.70;99.90;;;;;;6118480;19;20007;-67
2022/12/03 07:43:56;;;;;;;17.23;7.45;;;2.20;99.90;;;;;;6125007;19;19914;-67
2022/12/03 07:46:00;;;;;;;21.08;8.32;;;;;;;;;;6124878;19;20267;-66
2022/12/03 07:48:04;;;;;;;20.77;8.43;;;2.50;99.90;;;;;;6124651;19;19943;-67
2022/12/03 07:50:10;;;;;;;16.23;7.80;;;2.60;99.90;;;;;;6124848;19;20341;-67
2022/12/03 07:52:14;;;;;;;20.00;8.40;;;;;;;;;;6125304;19;19915;-68
2022/12/03 07:54:18;;;;;;;18.42;8.50;;;3.00;99.90;;;;;;6125069;19;19936;-67
2022/12/03 07:56:22;;;;;;;19.05;8.20;;;3.00;99.90;;;;;;6124995;19;20319;-66
2022/12/03 07:58:29;;;;;;;19.85;8.30;;;2.50;99.90;;;;;;6126272;19;19955;-67
2022/12/03 08:00:33;;;;;;;19.35;8.05;;;;;;;;;;6128455;19;19910;-68
2022/12/03 08:02:37;;;;;;;19.08;7.90;;;3.00;99.90;;;;;;6127209;19;19930;-66
2022/12/03 08:04:41;;;;;;;19.25;8.73;;;2.80;99.90;;;;;;6123357;19;19927;-64
2022/12/03 08:06:45;;;;;;;21.58;9.10;;;;;;;;;;6125399;19;19922;-64
2022/12/03 08:08:49;;;;;;;20.05;8.80;;;;;;;;;;6125780;19;19959;-63
2022/12/03 08:10:53;;;;;;;21.67;8.60;;;2.80;99.90;;;;;;6124053;19;19922;-64
2022/12/03 08:12:59;;;;;;;21.35;8.60;;;2.70;99.90;;;;;;6123798;19;19915;-63
2022/12/03 08:15:11;;;;;;;17.88;8.77;;;2.90;99.90;;;;;;6124031;19;20381;-64
2022/12/03 08:17:16;;;;;;;20.50;8.18;;;;;;;;;;6124298;19;19931;-64
2022/12/03 08:19:21;;;;;;;20.92;8.07;;;;;;;;;;6116145;19;20015;-64
2022/12/03 08:21:25;;;;;;;21.75;8.93;;;2.60;99.90;;;;;;6122988;19;19922;-64
2022/12/03 08:23:29;;;;;;;20.50;8.55;;;3.00;99.90;;;;;;6124937;19;19922;-64
2022/12/03 08:25:34;;;;;;;16.20;7.50;;;2.80;99.90;;;;;;6129946;19;19921;-64
2022/12/03 08:27:38;;;;;;;18.35;8.40;;;2.80;99.90;;;;;;6129042;19;19925;-63
2022/12/03 08:29:43;;;;;;;19.98;7.78;;;3.00;99.90;;;;;;6129668;19;19910;-64
2022/12/03 08:31:53;;;;;;;22.35;8.63;;;2.90;99.90;;;;;;6129276;19;19939;-64
2022/12/03 08:34:08;;;;;;;19.65;8.43;;;2.40;99.90;;;;;;6129403;19;19914;-64
2022/12/03 08:36:16;;;;;;;19.50;7.78;;;2.60;99.90;;;;;;6129230;19;20341;-65
2022/12/03 08:38:23;;;;;;;20.13;8.38;;;2.90;99.90;;;;;;6131746;19;19911;-64
2022/12/03 08:40:35;;;;;;;18.90;7.13;;;2.70;99.90;;;;;;6128867;19;19919;-64
2022/12/03 08:42:42;;;;;;;22.05;8.25;;;3.10;99.90;;;;;;6129275;19;19911;-64
2022/12/03 08:44:47;;;;;;;21.20;8.73;;;3.20;99.90;;;;;;6129257;19;19914;-63
2022/12/03 08:46:57;;;;;;;19.70;8.30;;;2.80;99.90;;;;;;6129212;19;19915;-63
2022/12/03 08:49:01;;;;;;;21.65;8.93;;;;;;;;;;6129001;19;20398;-63
2022/12/03 08:51:13;;;;;;;23.25;8.75;;;2.50;99.90;;;;;;6128964;19;19918;-63
2022/12/03 08:53:31;;;;;;;19.75;7.90;;;2.60;99.90;;;;;;6128819;19;19914;-64
2022/12/03 08:55:37;;;;;;;20.30;8.88;;;2.40;99.90;;;;;;6128416;19;19936;-63
2022/12/03 08:57:44;;;;;;;24.05;9.50;;;2.40;99.90;;;;;;6127662;19;19922;-63
2022/12/03 08:59:48;;;;;;;21.00;9.30;;;2.30;99.90;;;;;;6128480;19;19918;-64
2022/12/03 09:01:55;;;;;;;21.77;9.02;;;2.90;99.90;;;;;;6128795;19;19940;-64
2022/12/03 09:04:06;;;;;;;20.58;9.25;;;2.50;99.90;;;;;;6128895;19;20417;-64
2022/12/03 09:06:10;;;;;;;20.95;9.18;;;2.10;99.90;;;;;;6128518;19;20344;-65
2022/12/03 09:08:14;;;;;;;22.02;9.48;;;2.30;99.90;;;;;;6128566;19;19923;-64
2022/12/03 09:10:18;;;;;;;22.70;8.63;;;2.60;99.90;;;;;;6128518;19;19934;-63
2022/12/03 09:12:22;;;;;;;22.42;8.98;;;2.90;99.90;;;;;;6128605;19;20498;-64
2022/12/03 09:14:26;;;;;;;21.50;9.45;;;3.10;99.90;;;;;;6128524;19;19926;-64
2022/12/03 09:16:30;;;;;;;24.00;8.52;;;2.80;99.90;;;;;;6128589;19;19915;-63
2022/12/03 09:18:36;;;;;;;25.73;9.60;;;2.20;99.90;;;;;;6127794;19;19926;-63
2022/12/03 09:20:40;;;;;;;20.88;9.43;;;2.20;99.90;;;;;;6127727;19;20275;-64
2022/12/03 09:22:44;;;;;;;19.75;9.40;;;2.40;99.90;;;;;;6128036;19;19914;-63
2022/12/03 09:24:48;;;;;;;23.83;8.60;;;2.40;99.90;;;;;;6128650;19;19922;-64
2022/12/03 09:26:52;;;;;;;27.85;9.88;;;2.60;99.90;;;;;;6127713;19;19921;-64
2022/12/03 09:28:56;;;;;;;22.52;8.93;;;2.50;99.90;;;;;;6128036;19;19910;-64
2022/12/03 09:31:01;;;;;;;24.52;10.43;;;;;;;;;;6126661;19;19932;-64
2022/12/03 09:33:04;;;;;;;21.13;8.77;;;2.20;99.90;;;;;;6127933;19;19922;-64
2022/12/03 09:35:12;;;;;;;18.40;8.93;;;;;;;;;;6122217;19;20043;-64
2022/12/03 09:37:15;;;;;;;22.13;8.85;;;2.80;99.90;;;;;;6127970;19;19922;-64
2022/12/03 09:39:19;;;;;;;26.70;9.70;;;2.80;99.90;;;;;;6126314;19;19914;-64
2022/12/03 09:41:24;;;;;;;27.63;9.50;;;2.30;99.90;;;;;;6127562;19;19984;-63
2022/12/03 09:43:29;;;;;;;29.33;11.15;;;2.80;99.90;;;;;;6127869;19;19914;-63
2022/12/03 09:45:33;;;;;;;25.75;9.65;;;;;;;;;;6127929;19;19932;-64
2022/12/03 09:47:37;;;;;;;26.33;9.57;;;2.50;99.90;;;;;;6127508;19;19914;-63
2022/12/03 09:49:42;;;;;;;23.35;10.70;;;2.90;99.90;;;;;;6127776;19;19918;-63
2022/12/03 09:51:49;;;;;;;24.27;9.93;;;2.60;99.90;;;;;;6127450;19;19948;-63
2022/12/03 09:53:52;;;;;;;28.70;10.10;;;2.40;99.90;;;;;;6127606;19;19919;-64
2022/12/03 09:55:59;;;;;;;23.58;8.80;;;2.30;99.90;;;;;;6127429;19;19923;-64
2022/12/03 09:58:04;;;;;;;22.40;9.10;;;2.30;99.90;;;;;;6126860;19;19973;-66
2022/12/03 10:00:17;;;;;;;26.55;10.32;;;2.70;99.90;;;;;;6127390;19;19947;-64
2022/12/03 10:02:25;;;;;;;26.48;11.30;;;2.60;99.90;;;;;;6127460;19;19914;-64
2022/12/03 10:04:29;;;;;;;24.30;9.73;;;2.70;99.90;;;;;;6127324;19;19915;-64
2022/12/03 10:06:33;;;;;;;25.88;9.43;;;2.70;99.90;;;;;;6127421;19;19910;-64
2022/12/03 10:08:39;;;;;;;23.38;10.13;;;2.80;99.90;;;;;;6127172;19;20388;-65
2022/12/03 10:10:44;;;;;;;22.83;9.88;;;2.80;99.90;;;;;;6127154;19;19948;-65
2022/12/03 10:12:48;;;;;;;25.60;8.85;;;2.70;99.90;;;;;;6127166;19;19907;-64
2022/12/03 10:14:52;;;;;;;25.50;9.07;;;;;;;;;;6127295;19;19959;-64
2022/12/03 10:16:56;;;;;;;20.00;8.80;;;2.70;99.90;;;;;;6126900;19;19922;-64
2022/12/03 10:19:02;;;;;;;23.13;10.15;;;2.80;99.90;;;;;;6126217;19;19914;-65
2022/12/03 10:21:19;;;;;;;23.38;8.75;;;3.10;99.90;;;;;;6127645;19;19939;-66
2022/12/03 10:23:24;;;;;;;25.23;9.98;;;2.50;99.90;;;;;;6127243;19;19950;-65
2022/12/03 10:25:31;;;;;;;21.10;10.20;;;3.00;99.90;;;;;;6127098;19;19915;-64
2022/12/03 10:27:35;;;;;;;22.48;9.18;;;;;;;;;;6126712;19;19939;-64
2022/12/03 10:29:39;;;;;;;22.05;10.05;;;;;;;;;;6126705;19;19914;-64
2022/12/03 10:31:44;;;;;;;23.08;9.88;;;2.20;99.90;;;;;;6124533;19;19915;-65
2022/12/03 10:33:48;;;;;;;23.05;9.20;;;3.20;99.90;;;;;;6126592;19;20274;-64
2022/12/03 10:35:52;;;;;;;22.80;9.45;;;2.90;99.90;;;;;;6126592;19;19923;-63
2022/12/03 10:38:02;;;;;;;22.52;9.52;;;2.90;99.90;;;;;;6126950;19;19921;-64
2022/12/03 10:40:09;;;;;;;22.35;9.05;;;2.70;99.90;;;;;;6125353;19;19919;-64
2022/12/03 10:42:20;;;;;;;22.08;9.30;;;3.30;99.90;;;;;;6126535;19;20255;-63
2022/12/03 10:44:27;;;;;;;28.92;10.23;;;2.80;99.90;;;;;;6126322;19;20233;-64
2022/12/03 10:46:31;;;;;;;24.42;9.20;;;;;;;;;;6124343;19;19918;-63
2022/12/03 10:48:35;;;;;;;23.45;9.40;;;3.30;99.90;;;;;;6126256;19;19918;-64
2022/12/03 10:50:47;;;;;;;25.38;9.68;;;3.30;99.90;;;;;;6126524;19;20345;-63
2022/12/03 10:52:51;;;;;;;23.52;8.95;;;3.60;99.90;;;;;;6126142;19;19928;-63
2022/12/03 10:54:55;;;;;;;20.13;8.32;;;3.00;99.90;;;;;;6126157;19;19914;-63
2022/12/03 10:56:59;;;;;;;23.88;9.38;;;3.00;99.90;;;;;;6125899;19;19918;-64
2022/12/03 10:59:06;;;;;;;26.90;10.70;;;2.90;99.90;;;;;;6124827;19;19919;-64
2022/12/03 11:01:17;;;;;;;24.58;9.07;;;2.60;99.90;;;;;;6125937;19;19966;-64
2022/12/03 11:03:23;;;;;;;26.33;9.90;;;3.00;99.90;;;;;;6126622;19;19914;-63
2022/12/03 11:05:28;;;;;;;20.35;8.63;;;2.90;99.90;;;;;;6125809;19;19918;-63
2022/12/03 11:07:33;;;;;;;21.42;9.57;;;3.00;99.90;;;;;;6126387;19;19923;-64
2022/12/03 11:09:37;;;;;;;23.85;9.65;;;;;;;;;;6126172;19;19918;-65
2022/12/03 11:11:41;;;;;;;22.90;9.45;;;3.30;99.90;;;;;;6126121;19;19918;-63
2022/12/03 11:13:50;;;;;;;22.83;9.88;;;;;;;;;;6125804;19;20262;-63
2022/12/03 11:15:57;;;;;;;25.48;9.70;;;3.20;99.90;;;;;;6123725;19;19925;-63
2022/12/03 11:18:01;;;;;;;25.45;9.20;;;3.50;99.90;;;;;;6126114;19;20340;-64
2022/12/03 11:20:05;;;;;;;21.90;9.88;;;3.50;99.90;;;;;;6124274;19;19915;-64
2022/12/03 11:22:34;;;;;;;23.67;9.73;;;3.10;99.90;;;;;;6124525;19;20360;-63
2022/12/03 11:24:40;;;;;;;22.27;8.90;;;3.00;99.90;;;;;;6125420;19;19922;-63